McGillstown, Pennsylvania
Current Conditions -  °F | °C
As of 9:58 PM on Friday 21 Nov 2014 (Local Time) from KMUI Reporting Station
Clear Clear  
Wind Chill: 26°   Ceiling: Unl
Heat Index: 26°   Visibility: 10mi
Dew Point:   Wind: 3mph
Humidity: 47%   Direction: 220°SW
Pressure: 30.51"   Gusts: NA
Location:  40.4723°N, 76.5465°W
Report Text: KMUI 220258Z AUTO 22003KT 10SM CLR M03/M13 A3051 RMK AO2 SLP341 T10341132 51005 $
Loading
Personal Weather Stations






























Interactive Weather Map New forecast layout! Learn more

10-Day Weather Forecast

Advertisements
Track Severe Weather on mobile